EZY12BE EGKK-EKCH
Flight info
| Callsign | EZY12BE |
|---|---|
| Flight time | N/A |
| Altitude | 37000 |
| Route | FRANE M604 PAAVO Q295 SOMVA DCT MAVAS DCT DOSUR DCT TALSA P729 TUDLO |
| Aircraft | A320/M-SDE2E3FGHIJ1RWXYZ/LB1 |
Departure
| Time | N/A |
|---|---|
| Airport | London Gatwick Airport (EGKK) |
Arrival
| Time | 2026-05-01 08:37 |
|---|---|
| Airport | Copenhagen Kastrup Airport (EKCH) |
| Time | Latitude | Longitude | Altitude | Speed | Heading |
|---|---|---|---|---|---|
| 2026-05-01 07:23 | 52.17347 | 2.18495 | 34681 ft | 450 kts | 66° |
| 2026-05-01 07:23 | 52.20049 | 2.27676 | 35241 ft | 448 kts | 66° |
| 2026-05-01 07:24 | 52.21389 | 2.32252 | 35509 ft | 448 kts | 66° |
| 2026-05-01 07:24 | 52.22729 | 2.36846 | 35774 ft | 447 kts | 66° |
| 2026-05-01 07:24 | 52.24059 | 2.41417 | 36023 ft | 447 kts | 66° |
| 2026-05-01 07:24 | 52.25395 | 2.46003 | 36253 ft | 447 kts | 66° |
| 2026-05-01 07:25 | 52.26727 | 2.50577 | 36499 ft | 446 kts | 66° |
| 2026-05-01 07:25 | 52.28058 | 2.55163 | 36741 ft | 446 kts | 66° |
| 2026-05-01 07:25 | 52.29363 | 2.59671 | 36947 ft | 446 kts | 66° |
| 2026-05-01 07:25 | 52.30637 | 2.64285 | 37170 ft | 444 kts | 71° |
| 2026-05-01 07:26 | 52.31566 | 2.69067 | 37278 ft | 441 kts | 76° |
| 2026-05-01 07:26 | 52.33257 | 2.78692 | 37278 ft | 440 kts | 76° |
| 2026-05-01 07:27 | 52.34942 | 2.88297 | 37281 ft | 440 kts | 76° |
| 2026-05-01 07:27 | 52.36624 | 2.97923 | 37288 ft | 440 kts | 76° |
| 2026-05-01 07:28 | 52.38287 | 3.07541 | 37285 ft | 439 kts | 76° |
| 2026-05-01 07:28 | 52.40325 | 3.16952 | 37289 ft | 441 kts | 63° |
| 2026-05-01 07:29 | 52.43809 | 3.25256 | 37281 ft | 443 kts | 54° |
| 2026-05-01 07:29 | 52.47508 | 3.33336 | 37286 ft | 444 kts | 54° |
| 2026-05-01 07:30 | 52.51193 | 3.41455 | 37298 ft | 443 kts | 54° |
| 2026-05-01 07:30 | 52.54845 | 3.49514 | 37303 ft | 442 kts | 54° |
| 2026-05-01 07:31 | 52.58535 | 3.57674 | 37305 ft | 442 kts | 54° |
| 2026-05-01 07:32 | 52.67638 | 3.77908 | 37308 ft | 440 kts | 54° |
| 2026-05-01 07:33 | 52.73084 | 3.90105 | 37315 ft | 440 kts | 54° |
| 2026-05-01 07:33 | 52.78509 | 4.02307 | 37318 ft | 439 kts | 54° |
| 2026-05-01 07:34 | 52.83915 | 4.14518 | 37317 ft | 438 kts | 54° |
| 2026-05-01 07:35 | 52.87509 | 4.22673 | 37321 ft | 438 kts | 54° |
| 2026-05-01 07:35 | 52.91092 | 4.30840 | 37319 ft | 438 kts | 54° |
| 2026-05-01 07:36 | 52.94635 | 4.38947 | 37319 ft | 438 kts | 55° |
| 2026-05-01 07:36 | 52.98211 | 4.47123 | 37327 ft | 437 kts | 54° |
| 2026-05-01 07:37 | 53.03561 | 4.59399 | 37328 ft | 437 kts | 54° |
| 2026-05-01 07:37 | 53.07110 | 4.67602 | 37332 ft | 437 kts | 55° |
| 2026-05-01 07:38 | 53.10650 | 4.75823 | 37332 ft | 437 kts | 55° |
| 2026-05-01 07:39 | 53.15953 | 4.88154 | 37340 ft | 436 kts | 55° |
| 2026-05-01 07:39 | 53.21239 | 5.00523 | 37357 ft | 436 kts | 54° |
| 2026-05-01 07:40 | 53.24754 | 5.08762 | 37359 ft | 436 kts | 54° |
| 2026-05-01 07:40 | 53.28264 | 5.17026 | 37356 ft | 436 kts | 55° |
| 2026-05-01 07:41 | 53.31767 | 5.25305 | 37365 ft | 436 kts | 55° |
| 2026-05-01 07:42 | 53.37004 | 5.37735 | 37379 ft | 436 kts | 55° |
| 2026-05-01 07:42 | 53.40484 | 5.46022 | 37385 ft | 435 kts | 55° |
| 2026-05-01 07:43 | 53.43957 | 5.54322 | 37387 ft | 434 kts | 54° |
| 2026-05-01 07:43 | 53.49126 | 5.66716 | 37385 ft | 433 kts | 54° |
| 2026-05-01 07:44 | 53.56014 | 5.83339 | 37379 ft | 434 kts | 55° |
| 2026-05-01 07:45 | 53.59452 | 5.91674 | 37378 ft | 433 kts | 54° |
| 2026-05-01 07:45 | 53.62880 | 6.00024 | 37381 ft | 433 kts | 55° |
| 2026-05-01 07:46 | 53.66297 | 6.08376 | 37382 ft | 432 kts | 54° |
| 2026-05-01 07:47 | 53.71408 | 6.20891 | 37387 ft | 432 kts | 55° |
| 2026-05-01 07:47 | 53.74806 | 6.29248 | 37390 ft | 432 kts | 55° |
| 2026-05-01 07:48 | 53.79855 | 6.41758 | 37395 ft | 431 kts | 55° |
| 2026-05-01 07:48 | 53.83230 | 6.50147 | 37399 ft | 431 kts | 55° |
| 2026-05-01 07:49 | 53.88285 | 6.62729 | 37404 ft | 430 kts | 55° |
| 2026-05-01 07:50 | 53.91645 | 6.71122 | 37407 ft | 430 kts | 55° |
| 2026-05-01 07:50 | 53.96652 | 6.83724 | 37409 ft | 429 kts | 55° |
| 2026-05-01 07:51 | 53.99977 | 6.92128 | 37412 ft | 428 kts | 55° |
| 2026-05-01 07:52 | 54.04950 | 7.04735 | 37414 ft | 427 kts | 55° |
| 2026-05-01 07:52 | 54.08253 | 7.13146 | 37414 ft | 427 kts | 55° |
| 2026-05-01 07:53 | 54.13173 | 7.25732 | 37420 ft | 427 kts | 55° |
| 2026-05-01 07:53 | 54.16463 | 7.34172 | 37422 ft | 427 kts | 55° |
| 2026-05-01 07:55 | 54.24654 | 7.55295 | 37425 ft | 426 kts | 56° |
| 2026-05-01 07:56 | 54.32798 | 7.76500 | 37424 ft | 426 kts | 56° |
| 2026-05-01 07:57 | 54.37660 | 7.89270 | 37431 ft | 426 kts | 56° |
| 2026-05-01 07:58 | 54.44120 | 8.06340 | 37433 ft | 426 kts | 56° |
| 2026-05-01 07:59 | 54.50548 | 8.23443 | 37436 ft | 426 kts | 56° |
| 2026-05-01 08:00 | 54.60130 | 8.49079 | 37437 ft | 425 kts | 56° |
| 2026-05-01 08:01 | 54.66496 | 8.66287 | 37435 ft | 425 kts | 57° |
| 2026-05-01 08:02 | 54.70716 | 8.77777 | 37437 ft | 425 kts | 57° |
| 2026-05-01 08:03 | 54.75464 | 8.90736 | 37436 ft | 425 kts | 57° |
| 2026-05-01 08:03 | 54.80191 | 9.03728 | 37444 ft | 425 kts | 57° |
| 2026-05-01 08:04 | 54.86631 | 9.20922 | 37445 ft | 424 kts | 48° |
| 2026-05-01 08:05 | 54.92498 | 9.32435 | 37444 ft | 425 kts | 48° |
| 2026-05-01 08:06 | 54.97013 | 9.45663 | 37056 ft | 429 kts | 65° |
| 2026-05-01 08:06 | 54.99501 | 9.55119 | 36540 ft | 428 kts | 65° |
| 2026-05-01 08:07 | 55.01952 | 9.64531 | 35554 ft | 426 kts | 65° |
| 2026-05-01 08:07 | 55.04370 | 9.73830 | 34460 ft | 422 kts | 65° |
| 2026-05-01 08:08 | 55.05581 | 9.78478 | 33845 ft | 420 kts | 65° |
| 2026-05-01 08:08 | 55.07983 | 9.87712 | 32650 ft | 416 kts | 65° |
| 2026-05-01 08:09 | 55.10345 | 9.96868 | 31529 ft | 412 kts | 66° |
| 2026-05-01 08:09 | 55.11517 | 10.01423 | 30982 ft | 410 kts | 66° |
| 2026-05-01 08:09 | 55.12684 | 10.05948 | 30444 ft | 407 kts | 66° |
| 2026-05-01 08:10 | 55.14985 | 10.14911 | 29462 ft | 397 kts | 66° |
| 2026-05-01 08:10 | 55.17170 | 10.23473 | 29444 ft | 382 kts | 66° |
| 2026-05-01 08:11 | 55.19328 | 10.31979 | 28779 ft | 383 kts | 66° |
| 2026-05-01 08:11 | 55.21483 | 10.40467 | 27692 ft | 379 kts | 66° |
| 2026-05-01 08:12 | 55.23607 | 10.48868 | 26668 ft | 376 kts | 66° |
| 2026-05-01 08:12 | 55.24658 | 10.53054 | 26152 ft | 374 kts | 67° |
| 2026-05-01 08:12 | 55.26719 | 10.61303 | 25196 ft | 360 kts | 67° |
| 2026-05-01 08:13 | 55.27699 | 10.65225 | 24746 ft | 354 kts | 67° |
| 2026-05-01 08:13 | 55.28678 | 10.69167 | 24315 ft | 352 kts | 67° |
| 2026-05-01 08:13 | 55.30612 | 10.77012 | 23357 ft | 350 kts | 67° |
| 2026-05-01 08:14 | 55.31578 | 10.80928 | 22850 ft | 349 kts | 67° |
| 2026-05-01 08:14 | 55.32543 | 10.84842 | 22361 ft | 349 kts | 67° |
| 2026-05-01 08:14 | 55.33506 | 10.88757 | 21877 ft | 348 kts | 67° |
| 2026-05-01 08:14 | 55.34463 | 10.92657 | 21401 ft | 347 kts | 67° |
| 2026-05-01 08:15 | 55.35417 | 10.96554 | 20938 ft | 347 kts | 67° |
| 2026-05-01 08:15 | 55.37309 | 11.04320 | 20034 ft | 345 kts | 67° |
| 2026-05-01 08:15 | 55.38247 | 11.08195 | 19591 ft | 344 kts | 67° |
| 2026-05-01 08:16 | 55.39180 | 11.12055 | 19149 ft | 343 kts | 67° |
| 2026-05-01 08:16 | 55.40116 | 11.15918 | 18726 ft | 342 kts | 67° |
| 2026-05-01 08:16 | 55.41049 | 11.19770 | 18247 ft | 342 kts | 67° |
| 2026-05-01 08:16 | 55.41782 | 11.22798 | 17869 ft | 342 kts | 67° |
| 2026-05-01 08:17 | 55.41871 | 11.23168 | 17820 ft | 342 kts | 67° |
| 2026-05-01 08:17 | 55.42155 | 11.24347 | 17673 ft | 341 kts | 67° |
| 2026-05-01 08:17 | 55.43066 | 11.28127 | 17205 ft | 331 kts | 68° |
| 2026-05-01 08:17 | 55.43963 | 11.31855 | 16813 ft | 329 kts | 68° |
| 2026-05-01 08:18 | 55.44847 | 11.35540 | 16509 ft | 325 kts | 68° |
| 2026-05-01 08:18 | 55.46589 | 11.42811 | 15905 ft | 319 kts | 68° |
| 2026-05-01 08:19 | 55.48297 | 11.49961 | 15328 ft | 315 kts | 68° |
| 2026-05-01 08:19 | 55.49145 | 11.53521 | 14927 ft | 316 kts | 68° |
| 2026-05-01 08:19 | 55.49997 | 11.57115 | 14535 ft | 318 kts | 68° |
| 2026-05-01 08:19 | 55.50853 | 11.60719 | 14123 ft | 319 kts | 68° |
| 2026-05-01 08:20 | 55.51699 | 11.64285 | 13681 ft | 320 kts | 68° |
| 2026-05-01 08:20 | 55.52559 | 11.67917 | 13238 ft | 321 kts | 68° |
| 2026-05-01 08:20 | 55.53429 | 11.71601 | 12786 ft | 321 kts | 68° |
| 2026-05-01 08:20 | 55.54275 | 11.75183 | 12364 ft | 319 kts | 68° |
| 2026-05-01 08:21 | 55.55112 | 11.78724 | 11947 ft | 307 kts | 68° |
| 2026-05-01 08:21 | 55.55920 | 11.82148 | 11551 ft | 298 kts | 68° |
| 2026-05-01 08:21 | 55.56712 | 11.85526 | 11172 ft | 297 kts | 68° |
| 2026-05-01 08:21 | 55.57494 | 11.88881 | 10790 ft | 295 kts | 69° |
| 2026-05-01 08:22 | 55.58273 | 11.92233 | 10419 ft | 293 kts | 68° |
| 2026-05-01 08:22 | 55.59043 | 11.95542 | 10015 ft | 288 kts | 68° |
| 2026-05-01 08:22 | 55.59801 | 11.98787 | 9626 ft | 285 kts | 68° |
| 2026-05-01 08:22 | 55.60556 | 12.02017 | 9240 ft | 285 kts | 68° |
| 2026-05-01 08:23 | 55.61310 | 12.05250 | 8852 ft | 284 kts | 68° |
| 2026-05-01 08:23 | 55.62058 | 12.08472 | 8497 ft | 282 kts | 68° |
| 2026-05-01 08:23 | 55.62788 | 12.11630 | 8426 ft | 269 kts | 68° |
| 2026-05-01 08:23 | 55.63492 | 12.14667 | 8433 ft | 267 kts | 68° |
| 2026-05-01 08:24 | 55.64185 | 12.17661 | 8435 ft | 263 kts | 68° |
| 2026-05-01 08:24 | 55.64879 | 12.20670 | 8139 ft | 263 kts | 68° |
| 2026-05-01 08:24 | 55.65568 | 12.23664 | 7796 ft | 263 kts | 68° |
| 2026-05-01 08:24 | 55.66252 | 12.26647 | 7499 ft | 260 kts | 68° |
| 2026-05-01 08:25 | 55.66932 | 12.29610 | 7239 ft | 258 kts | 69° |
| 2026-05-01 08:25 | 55.67605 | 12.32547 | 6973 ft | 258 kts | 68° |
| 2026-05-01 08:25 | 55.68279 | 12.35487 | 6696 ft | 257 kts | 68° |
| 2026-05-01 08:25 | 55.68953 | 12.38420 | 6412 ft | 256 kts | 68° |
| 2026-05-01 08:26 | 55.69624 | 12.41347 | 6138 ft | 256 kts | 68° |
| 2026-05-01 08:26 | 55.70292 | 12.44272 | 5858 ft | 256 kts | 67° |
| 2026-05-01 08:26 | 55.70961 | 12.47204 | 5586 ft | 256 kts | 67° |
| 2026-05-01 08:26 | 55.71617 | 12.50088 | 5313 ft | 255 kts | 67° |
| 2026-05-01 08:27 | 55.72287 | 12.53045 | 5025 ft | 254 kts | 67° |
| 2026-05-01 08:27 | 55.72934 | 12.55901 | 4746 ft | 253 kts | 67° |
| 2026-05-01 08:27 | 55.73586 | 12.58785 | 4474 ft | 251 kts | 66° |
| 2026-05-01 08:27 | 55.74239 | 12.61660 | 4207 ft | 250 kts | 65° |
| 2026-05-01 08:28 | 55.75092 | 12.64315 | 3918 ft | 247 kts | 50° |
| 2026-05-01 08:28 | 55.76252 | 12.66501 | 3642 ft | 242 kts | 38° |
| 2026-05-01 08:28 | 55.77521 | 12.68446 | 3375 ft | 240 kts | 38° |
| 2026-05-01 08:28 | 55.78772 | 12.70390 | 3126 ft | 239 kts | 38° |
| 2026-05-01 08:29 | 55.80008 | 12.72325 | 3000 ft | 232 kts | 39° |
| 2026-05-01 08:29 | 55.81176 | 12.74159 | 2998 ft | 217 kts | 38° |
| 2026-05-01 08:29 | 55.82246 | 12.76065 | 3004 ft | 218 kts | 54° |
| 2026-05-01 08:29 | 55.82756 | 12.78516 | 3009 ft | 209 kts | 82° |
| 2026-05-01 08:30 | 55.82587 | 12.80976 | 3014 ft | 194 kts | 109° |
| 2026-05-01 08:30 | 55.81917 | 12.82939 | 3011 ft | 180 kts | 130° |
| 2026-05-01 08:30 | 55.81090 | 12.84524 | 3025 ft | 179 kts | 134° |
| 2026-05-01 08:30 | 55.80203 | 12.86096 | 3013 ft | 180 kts | 135° |
| 2026-05-01 08:31 | 55.79248 | 12.87527 | 2982 ft | 180 kts | 140° |
| 2026-05-01 08:31 | 55.78206 | 12.88703 | 2868 ft | 178 kts | 165° |
| 2026-05-01 08:31 | 55.76994 | 12.88757 | 2817 ft | 173 kts | 200° |
| 2026-05-01 08:31 | 55.75983 | 12.87715 | 2783 ft | 168 kts | 226° |
| 2026-05-01 08:32 | 55.75131 | 12.86379 | 2738 ft | 155 kts | 226° |
| 2026-05-01 08:32 | 55.74795 | 12.85853 | 2731 ft | 149 kts | 226° |
| 2026-05-01 08:32 | 55.74119 | 12.84794 | 2674 ft | 147 kts | 226° |
| 2026-05-01 08:32 | 55.73350 | 12.83590 | 2599 ft | 148 kts | 226° |
| 2026-05-01 08:33 | 55.72578 | 12.82384 | 2557 ft | 148 kts | 226° |
| 2026-05-01 08:33 | 55.71814 | 12.81189 | 2444 ft | 146 kts | 226° |
| 2026-05-01 08:33 | 55.71050 | 12.79997 | 2278 ft | 147 kts | 226° |
| 2026-05-01 08:33 | 55.70285 | 12.78804 | 2099 ft | 146 kts | 226° |
| 2026-05-01 08:34 | 55.69534 | 12.77633 | 1901 ft | 146 kts | 226° |
| 2026-05-01 08:34 | 55.68765 | 12.76436 | 1699 ft | 144 kts | 225° |
| 2026-05-01 08:34 | 55.68015 | 12.75268 | 1502 ft | 143 kts | 225° |
| 2026-05-01 08:34 | 55.67272 | 12.74111 | 1300 ft | 141 kts | 225° |
| 2026-05-01 08:35 | 55.66546 | 12.72946 | 1124 ft | 140 kts | 226° |
| 2026-05-01 08:35 | 55.65829 | 12.71801 | 933 ft | 140 kts | 225° |
| 2026-05-01 08:35 | 55.65088 | 12.70669 | 750 ft | 142 kts | 223° |
| 2026-05-01 08:35 | 55.64351 | 12.69527 | 535 ft | 141 kts | 222° |
| 2026-05-01 08:36 | 55.63606 | 12.68383 | 356 ft | 142 kts | 220° |
| 2026-05-01 08:36 | 55.62854 | 12.67239 | 159 ft | 143 kts | 219° |
| 2026-05-01 08:36 | 55.62107 | 12.66082 | 19 ft | 139 kts | 219° |
| 2026-05-01 08:36 | 55.61499 | 12.65150 | 18 ft | 91 kts | 220° |
| 2026-05-01 08:37 | 55.61150 | 12.64616 | 19 ft | 46 kts | 218° |
| 2026-05-01 08:37 | 55.60919 | 12.64263 | 22 ft | 42 kts | 219° |
| 2026-05-01 08:37 | 55.60752 | 12.63998 | 25 ft | 26 kts | 219° |
| 2026-05-01 08:37 | 55.60693 | 12.63790 | 22 ft | 9 kts | 293° |
| 2026-05-01 08:38 | 55.60717 | 12.63733 | 22 ft | 9 kts | 312° |
| 2026-05-01 08:38 | 55.60727 | 12.63712 | 23 ft | 3 kts | 311° |
| 2026-05-01 08:38 | 55.60739 | 12.63689 | 23 ft | 3 kts | 310° |
| 2026-05-01 08:39 | 55.60764 | 12.63639 | 22 ft | 6 kts | 315° |
| 2026-05-01 08:39 | 55.60798 | 12.63605 | 21 ft | 6 kts | 345° |
| 2026-05-01 08:39 | 55.60836 | 12.63614 | 21 ft | 5 kts | 15° |
| 2026-05-01 08:39 | 55.60873 | 12.63654 | 22 ft | 9 kts | 36° |
| 2026-05-01 08:40 | 55.61030 | 12.63826 | 20 ft | 18 kts | 39° |
| 2026-05-01 08:40 | 55.61153 | 12.63961 | 20 ft | 23 kts | 28° |
| 2026-05-01 08:40 | 55.61297 | 12.64133 | 19 ft | 21 kts | 31° |
| 2026-05-01 08:41 | 55.61382 | 12.64229 | 20 ft | 14 kts | 32° |
| 2026-05-01 08:41 | 55.61472 | 12.64332 | 25 ft | 17 kts | 34° |
| 2026-05-01 08:41 | 55.61581 | 12.64467 | 23 ft | 22 kts | 36° |
| 2026-05-01 08:41 | 55.61692 | 12.64589 | 22 ft | 16 kts | 31° |
| 2026-05-01 08:42 | 55.61802 | 12.64715 | 22 ft | 22 kts | 32° |
| 2026-05-01 08:42 | 55.61927 | 12.64853 | 20 ft | 20 kts | 30° |
| 2026-05-01 08:42 | 55.62048 | 12.64990 | 21 ft | 18 kts | 36° |
| 2026-05-01 08:42 | 55.62104 | 12.65060 | 22 ft | 10 kts | 34° |
| 2026-05-01 08:43 | 55.62170 | 12.65137 | 24 ft | 14 kts | 33° |
| 2026-05-01 08:43 | 55.62239 | 12.65198 | 22 ft | 9 kts | 7° |
| 2026-05-01 08:43 | 55.62292 | 12.65242 | 23 ft | 10 kts | 87° |
| 2026-05-01 08:43 | 55.62344 | 12.65330 | 20 ft | 15 kts | 358° |
| 2026-05-01 08:44 | 55.62407 | 12.65327 | 19 ft | 4 kts | 359° |
| 2026-05-01 08:44 | 55.62429 | 12.65348 | 20 ft | 4 kts | 54° |
| 2026-05-01 08:44 | 55.62440 | 12.65404 | 18 ft | 4 kts | 81° |
| 2026-05-01 08:44 | 55.62442 | 12.65494 | 18 ft | 12 kts | 87° |
| 2026-05-01 08:45 | 55.62469 | 12.65535 | 18 ft | 4 kts | 24° |
| 2026-05-01 08:45 | 55.62491 | 12.65552 | 18 ft | 3 kts | 24° |
| 2026-05-01 08:45 | 55.62514 | 12.65569 | 18 ft | 4 kts | 23° |
| 2026-05-01 08:45 | 55.62523 | 12.65576 | 17 ft | 0 kts | 23° |
| 2026-05-01 08:47 | 55.63081 | 12.67590 | 219 ft | 143 kts | 219° |